sensor_id;sensor_type;location;lat;lon;timestamp;temperature;humidity
10083;DHT22;5080;48.528;8.078;2023-05-31T00:02:06;20.60;96.40
10083;DHT22;5080;48.528;8.078;2023-05-31T00:04:33;20.60;96.20
10083;DHT22;5080;48.528;8.078;2023-05-31T00:06:59;20.60;96.20
10083;DHT22;5080;48.528;8.078;2023-05-31T00:09:28;20.50;96.50
10083;DHT22;5080;48.528;8.078;2023-05-31T00:11:54;20.50;96.40
10083;DHT22;5080;48.528;8.078;2023-05-31T00:14:21;20.50;96.40
10083;DHT22;5080;48.528;8.078;2023-05-31T00:16:48;20.50;96.50
10083;DHT22;5080;48.528;8.078;2023-05-31T00:19:15;20.40;96.50
10083;DHT22;5080;48.528;8.078;2023-05-31T00:21:43;20.40;96.60
10083;DHT22;5080;48.528;8.078;2023-05-31T00:24:11;20.40;96.70
10083;DHT22;5080;48.528;8.078;2023-05-31T00:26:39;20.40;96.90
10083;DHT22;5080;48.528;8.078;2023-05-31T00:29:06;20.30;96.80
10083;DHT22;5080;48.528;8.078;2023-05-31T00:31:32;20.40;97.10
10083;DHT22;5080;48.528;8.078;2023-05-31T00:33:59;20.30;97.30
10083;DHT22;5080;48.528;8.078;2023-05-31T00:36:26;20.20;97.50
10083;DHT22;5080;48.528;8.078;2023-05-31T00:38:53;20.20;97.60
10083;DHT22;5080;48.528;8.078;2023-05-31T00:41:20;20.20;97.30
10083;DHT22;5080;48.528;8.078;2023-05-31T00:43:48;20.20;97.50
10083;DHT22;5080;48.528;8.078;2023-05-31T00:46:22;20.20;97.80
10083;DHT22;5080;48.528;8.078;2023-05-31T00:48:51;20.20;97.80
10083;DHT22;5080;48.528;8.078;2023-05-31T00:51:18;20.10;98.00
10083;DHT22;5080;48.528;8.078;2023-05-31T00:53:45;20.00;98.30
10083;DHT22;5080;48.528;8.078;2023-05-31T00:56:13;20.00;98.30
10083;DHT22;5080;48.528;8.078;2023-05-31T00:58:40;19.90;98.50
10083;DHT22;5080;48.528;8.078;2023-05-31T01:01:09;20.00;99.10
10083;DHT22;5080;48.528;8.078;2023-05-31T01:03:36;20.00;98.80
10083;DHT22;5080;48.528;8.078;2023-05-31T01:06:04;20.10;98.70
10083;DHT22;5080;48.528;8.078;2023-05-31T01:08:31;20.20;98.40
10083;DHT22;5080;48.528;8.078;2023-05-31T01:11:04;20.20;98.50
10083;DHT22;5080;48.528;8.078;2023-05-31T01:13:38;20.20;98.10
10083;DHT22;5080;48.528;8.078;2023-05-31T01:16:14;20.20;97.90
10083;DHT22;5080;48.528;8.078;2023-05-31T01:18:44;20.20;98.00
10083;DHT22;5080;48.528;8.078;2023-05-31T01:21:12;20.20;97.70
10083;DHT22;5080;48.528;8.078;2023-05-31T01:23:52;20.10;97.70
10083;DHT22;5080;48.528;8.078;2023-05-31T01:26:36;20.10;97.90
10083;DHT22;5080;48.528;8.078;2023-05-31T01:29:06;20.00;98.10
10083;DHT22;5080;48.528;8.078;2023-05-31T01:31:35;20.00;98.20
10083;DHT22;5080;48.528;8.078;2023-05-31T01:34:03;19.90;98.10
10083;DHT22;5080;48.528;8.078;2023-05-31T01:36:31;19.80;98.10
10083;DHT22;5080;48.528;8.078;2023-05-31T01:38:58;19.70;97.70
10083;DHT22;5080;48.528;8.078;2023-05-31T01:41:28;19.80;97.40
10083;DHT22;5080;48.528;8.078;2023-05-31T01:43:57;19.80;97.60
10083;DHT22;5080;48.528;8.078;2023-05-31T01:46:24;19.80;97.80
10083;DHT22;5080;48.528;8.078;2023-05-31T01:48:52;19.80;98.20
10083;DHT22;5080;48.528;8.078;2023-05-31T01:51:20;19.80;97.40
10083;DHT22;5080;48.528;8.078;2023-05-31T01:53:48;19.80;97.80
10083;DHT22;5080;48.528;8.078;2023-05-31T01:56:16;19.70;98.30
10083;DHT22;5080;48.528;8.078;2023-05-31T01:58:45;19.60;98.30
10083;DHT22;5080;48.528;8.078;2023-05-31T02:01:16;19.60;98.20
10083;DHT22;5080;48.528;8.078;2023-05-31T02:03:44;19.50;98.40
10083;DHT22;5080;48.528;8.078;2023-05-31T02:06:11;19.50;98.70
10083;DHT22;5080;48.528;8.078;2023-05-31T02:08:39;19.40;99.10
10083;DHT22;5080;48.528;8.078;2023-05-31T02:11:06;19.40;99.00
10083;DHT22;5080;48.528;8.078;2023-05-31T02:13:33;19.40;98.80
10083;DHT22;5080;48.528;8.078;2023-05-31T02:16:01;19.40;99.10
10083;DHT22;5080;48.528;8.078;2023-05-31T02:18:30;19.20;99.30
10083;DHT22;5080;48.528;8.078;2023-05-31T02:20:58;19.00;99.60
10083;DHT22;5080;48.528;8.078;2023-05-31T02:23:25;18.70;99.90
10083;DHT22;5080;48.528;8.078;2023-05-31T02:25:52;18.50;99.90
10083;DHT22;5080;48.528;8.078;2023-05-31T02:28:20;18.20;99.90
10083;DHT22;5080;48.528;8.078;2023-05-31T02:30:54;17.90;99.90
10083;DHT22;5080;48.528;8.078;2023-05-31T02:33:21;17.80;99.90
10083;DHT22;5080;48.528;8.078;2023-05-31T02:35:50;17.90;99.90
10083;DHT22;5080;48.528;8.078;2023-05-31T02:38:17;17.90;99.90
10083;DHT22;5080;48.528;8.078;2023-05-31T02:40:44;17.80;99.90
10083;DHT22;5080;48.528;8.078;2023-05-31T02:43:11;17.70;99.90
10083;DHT22;5080;48.528;8.078;2023-05-31T02:45:38;17.60;99.90
10083;DHT22;5080;48.528;8.078;2023-05-31T02:48:05;17.60;99.90
10083;DHT22;5080;48.528;8.078;2023-05-31T02:50:32;17.50;99.90
10083;DHT22;5080;48.528;8.078;2023-05-31T02:53:00;17.40;99.90
10083;DHT22;5080;48.528;8.078;2023-05-31T02:55:29;17.30;99.90
10083;DHT22;5080;48.528;8.078;2023-05-31T02:57:56;17.30;99.90
10083;DHT22;5080;48.528;8.078;2023-05-31T03:00:23;17.30;99.90
10083;DHT22;5080;48.528;8.078;2023-05-31T03:02:51;17.20;99.90
10083;DHT22;5080;48.528;8.078;2023-05-31T03:05:18;17.00;99.90
10083;DHT22;5080;48.528;8.078;2023-05-31T03:07:46;16.90;99.90
10083;DHT22;5080;48.528;8.078;2023-05-31T03:10:14;17.00;99.90
10083;DHT22;5080;48.528;8.078;2023-05-31T03:12:41;16.90;99.90
10083;DHT22;5080;48.528;8.078;2023-05-31T03:15:09;16.90;99.90
10083;DHT22;5080;48.528;8.078;2023-05-31T03:17:36;17.00;99.90
10083;DHT22;5080;48.528;8.078;2023-05-31T03:20:05;17.00;99.90
10083;DHT22;5080;48.528;8.078;2023-05-31T03:22:35;16.90;99.90
10083;DHT22;5080;48.528;8.078;2023-05-31T03:25:02;16.80;99.90
10083;DHT22;5080;48.528;8.078;2023-05-31T03:27:31;16.80;99.90
10083;DHT22;5080;48.528;8.078;2023-05-31T03:29:58;16.80;99.90
10083;DHT22;5080;48.528;8.078;2023-05-31T03:32:25;16.70;99.90
10083;DHT22;5080;48.528;8.078;2023-05-31T03:34:52;16.70;99.90
10083;DHT22;5080;48.528;8.078;2023-05-31T03:37:19;16.70;99.90
10083;DHT22;5080;48.528;8.078;2023-05-31T03:39:45;16.50;99.90
10083;DHT22;5080;48.528;8.078;2023-05-31T03:42:12;16.50;99.90
10083;DHT22;5080;48.528;8.078;2023-05-31T03:44:41;16.50;99.90
10083;DHT22;5080;48.528;8.078;2023-05-31T03:47:08;16.50;99.90
10083;DHT22;5080;48.528;8.078;2023-05-31T03:49:36;16.50;99.90
10083;DHT22;5080;48.528;8.078;2023-05-31T03:52:03;16.40;99.90
10083;DHT22;5080;48.528;8.078;2023-05-31T03:54:30;16.20;99.90
10083;DHT22;5080;48.528;8.078;2023-05-31T03:56:57;16.10;99.90
10083;DHT22;5080;48.528;8.078;2023-05-31T03:59:23;16.00;99.90
10083;DHT22;5080;48.528;8.078;2023-05-31T04:01:51;15.80;99.90
10083;DHT22;5080;48.528;8.078;2023-05-31T04:04:18;15.80;99.90
10083;DHT22;5080;48.528;8.078;2023-05-31T04:06:46;16.00;99.90
10083;DHT22;5080;48.528;8.078;2023-05-31T04:09:12;15.90;99.90
10083;DHT22;5080;48.528;8.078;2023-05-31T04:11:39;16.00;99.90
10083;DHT22;5080;48.528;8.078;2023-05-31T04:14:06;15.90;99.90
10083;DHT22;5080;48.528;8.078;2023-05-31T04:16:33;15.80;99.90
10083;DHT22;5080;48.528;8.078;2023-05-31T04:19:01;15.80;99.90
10083;DHT22;5080;48.528;8.078;2023-05-31T04:21:28;16.00;99.90
10083;DHT22;5080;48.528;8.078;2023-05-31T04:23:55;15.90;99.90
10083;DHT22;5080;48.528;8.078;2023-05-31T04:26:22;16.00;99.90
10083;DHT22;5080;48.528;8.078;2023-05-31T04:28:49;16.10;99.90
10083;DHT22;5080;48.528;8.078;2023-05-31T04:31:19;16.00;99.90
10083;DHT22;5080;48.528;8.078;2023-05-31T04:33:46;15.90;99.90
10083;DHT22;5080;48.528;8.078;2023-05-31T04:36:14;16.00;99.90
10083;DHT22;5080;48.528;8.078;2023-05-31T04:38:41;16.10;99.90
10083;DHT22;5080;48.528;8.078;2023-05-31T04:41:08;16.00;99.90
10083;DHT22;5080;48.528;8.078;2023-05-31T04:43:35;16.00;99.90
10083;DHT22;5080;48.528;8.078;2023-05-31T04:46:05;16.00;99.90
10083;DHT22;5080;48.528;8.078;2023-05-31T04:48:34;16.10;99.90
10083;DHT22;5080;48.528;8.078;2023-05-31T04:51:01;16.10;99.90
10083;DHT22;5080;48.528;8.078;2023-05-31T04:53:31;16.10;99.90
10083;DHT22;5080;48.528;8.078;2023-05-31T04:55:58;16.20;99.90
10083;DHT22;5080;48.528;8.078;2023-05-31T04:58:29;16.20;99.90
10083;DHT22;5080;48.528;8.078;2023-05-31T05:00:56;16.40;99.90
10083;DHT22;5080;48.528;8.078;2023-05-31T05:03:25;16.30;99.90
10083;DHT22;5080;48.528;8.078;2023-05-31T05:05:52;16.30;99.90
10083;DHT22;5080;48.528;8.078;2023-05-31T05:08:19;16.40;99.90
10083;DHT22;5080;48.528;8.078;2023-05-31T05:10:47;16.40;99.90
10083;DHT22;5080;48.528;8.078;2023-05-31T05:13:14;16.50;99.90
10083;DHT22;5080;48.528;8.078;2023-05-31T05:15:42;16.70;99.90
10083;DHT22;5080;48.528;8.078;2023-05-31T05:18:09;16.90;99.90
10083;DHT22;5080;48.528;8.078;2023-05-31T05:20:36;17.20;99.90
10083;DHT22;5080;48.528;8.078;2023-05-31T05:23:02;17.30;99.90
10083;DHT22;5080;48.528;8.078;2023-05-31T05:25:32;17.40;99.90
10083;DHT22;5080;48.528;8.078;2023-05-31T05:28:01;17.60;99.90
10083;DHT22;5080;48.528;8.078;2023-05-31T05:30:28;17.70;99.90
10083;DHT22;5080;48.528;8.078;2023-05-31T05:32:55;17.80;99.90
10083;DHT22;5080;48.528;8.078;2023-05-31T05:35:21;17.80;99.90
10083;DHT22;5080;48.528;8.078;2023-05-31T05:37:48;18.00;99.90
10083;DHT22;5080;48.528;8.078;2023-05-31T05:40:15;18.00;99.90
10083;DHT22;5080;48.528;8.078;2023-05-31T05:42:42;18.00;99.90
10083;DHT22;5080;48.528;8.078;2023-05-31T05:45:11;18.30;99.90
10083;DHT22;5080;48.528;8.078;2023-05-31T05:47:38;18.50;99.90
10083;DHT22;5080;48.528;8.078;2023-05-31T05:50:09;18.70;99.90
10083;DHT22;5080;48.528;8.078;2023-05-31T05:52:36;18.80;99.90
10083;DHT22;5080;48.528;8.078;2023-05-31T05:55:06;18.80;99.90
10083;DHT22;5080;48.528;8.078;2023-05-31T05:57:40;18.90;99.90
10083;DHT22;5080;48.528;8.078;2023-05-31T06:00:08;18.80;99.90
10083;DHT22;5080;48.528;8.078;2023-05-31T06:02:38;18.90;99.90
10083;DHT22;5080;48.528;8.078;2023-05-31T06:05:05;19.00;99.90
10083;DHT22;5080;48.528;8.078;2023-05-31T06:07:32;19.10;99.90
10083;DHT22;5080;48.528;8.078;2023-05-31T06:09:59;19.00;99.90
10083;DHT22;5080;48.528;8.078;2023-05-31T06:12:28;19.20;99.90
10083;DHT22;5080;48.528;8.078;2023-05-31T06:14:55;19.60;99.90
10083;DHT22;5080;48.528;8.078;2023-05-31T06:17:22;19.60;99.90
10083;DHT22;5080;48.528;8.078;2023-05-31T06:19:50;19.50;99.90
10083;DHT22;5080;48.528;8.078;2023-05-31T06:22:17;19.70;99.90
10083;DHT22;5080;48.528;8.078;2023-05-31T06:24:45;19.80;99.90
10083;DHT22;5080;48.528;8.078;2023-05-31T06:27:13;19.90;99.90
10083;DHT22;5080;48.528;8.078;2023-05-31T06:29:40;20.00;99.90
10083;DHT22;5080;48.528;8.078;2023-05-31T06:32:07;20.00;99.90
10083;DHT22;5080;48.528;8.078;2023-05-31T06:34:34;20.00;99.90
10083;DHT22;5080;48.528;8.078;2023-05-31T06:37:02;20.20;99.90
10083;DHT22;5080;48.528;8.078;2023-05-31T06:39:29;20.40;99.90
10083;DHT22;5080;48.528;8.078;2023-05-31T06:41:56;20.40;99.90
10083;DHT22;5080;48.528;8.078;2023-05-31T06:44:25;20.40;99.90
10083;DHT22;5080;48.528;8.078;2023-05-31T06:46:52;20.40;99.90
10083;DHT22;5080;48.528;8.078;2023-05-31T06:49:19;20.40;99.90
10083;DHT22;5080;48.528;8.078;2023-05-31T06:51:45;20.60;99.90
10083;DHT22;5080;48.528;8.078;2023-05-31T06:54:14;20.60;99.90
10083;DHT22;5080;48.528;8.078;2023-05-31T06:56:41;20.80;99.90
10083;DHT22;5080;48.528;8.078;2023-05-31T06:59:08;21.00;99.90
10083;DHT22;5080;48.528;8.078;2023-05-31T07:01:35;21.00;99.90
10083;DHT22;5080;48.528;8.078;2023-05-31T07:04:02;21.10;99.90
10083;DHT22;5080;48.528;8.078;2023-05-31T07:06:28;21.20;99.90
10083;DHT22;5080;48.528;8.078;2023-05-31T07:08:55;21.30;99.90
10083;DHT22;5080;48.528;8.078;2023-05-31T07:11:24;21.30;99.90
10083;DHT22;5080;48.528;8.078;2023-05-31T07:13:51;21.20;99.90
10083;DHT22;5080;48.528;8.078;2023-05-31T07:16:18;21.40;99.90
10083;DHT22;5080;48.528;8.078;2023-05-31T07:18:45;21.50;99.90
10083;DHT22;5080;48.528;8.078;2023-05-31T07:21:13;21.50;99.90
10083;DHT22;5080;48.528;8.078;2023-05-31T07:23:39;21.50;99.90
10083;DHT22;5080;48.528;8.078;2023-05-31T07:26:06;21.60;99.90
10083;DHT22;5080;48.528;8.078;2023-05-31T07:28:34;21.70;99.90
10083;DHT22;5080;48.528;8.078;2023-05-31T07:31:01;21.70;99.90
10083;DHT22;5080;48.528;8.078;2023-05-31T07:33:28;21.80;99.90
10083;DHT22;5080;48.528;8.078;2023-05-31T07:35:57;21.90;99.90
10083;DHT22;5080;48.528;8.078;2023-05-31T07:38:24;22.00;99.90
10083;DHT22;5080;48.528;8.078;2023-05-31T07:40:51;22.20;99.90
10083;DHT22;5080;48.528;8.078;2023-05-31T07:43:18;22.20;99.90
10083;DHT22;5080;48.528;8.078;2023-05-31T07:45:48;22.20;99.90
10083;DHT22;5080;48.528;8.078;2023-05-31T07:48:16;22.20;99.90
10083;DHT22;5080;48.528;8.078;2023-05-31T07:50:43;22.10;99.90
10083;DHT22;5080;48.528;8.078;2023-05-31T07:53:09;22.00;99.90
10083;DHT22;5080;48.528;8.078;2023-05-31T07:55:36;22.00;99.90
10083;DHT22;5080;48.528;8.078;2023-05-31T07:58:03;21.90;99.90
10083;DHT22;5080;48.528;8.078;2023-05-31T08:00:30;22.00;99.90
10083;DHT22;5080;48.528;8.078;2023-05-31T08:02:59;22.00;99.90
10083;DHT22;5080;48.528;8.078;2023-05-31T08:05:26;21.90;99.90
10083;DHT22;5080;48.528;8.078;2023-05-31T08:07:53;22.00;99.90
10083;DHT22;5080;48.528;8.078;2023-05-31T08:10:19;22.00;99.90
10083;DHT22;5080;48.528;8.078;2023-05-31T08:12:46;22.00;99.90
10083;DHT22;5080;48.528;8.078;2023-05-31T08:15:13;22.00;99.90
10083;DHT22;5080;48.528;8.078;2023-05-31T08:17:40;22.00;99.90
10083;DHT22;5080;48.528;8.078;2023-05-31T08:20:10;22.10;99.90
10083;DHT22;5080;48.528;8.078;2023-05-31T08:22:41;22.20;99.90
10083;DHT22;5080;48.528;8.078;2023-05-31T08:25:08;22.20;99.90
10083;DHT22;5080;48.528;8.078;2023-05-31T08:27:38;22.30;99.90
10083;DHT22;5080;48.528;8.078;2023-05-31T08:30:07;22.50;99.90
10083;DHT22;5080;48.528;8.078;2023-05-31T08:32:34;22.70;99.90
10083;DHT22;5080;48.528;8.078;2023-05-31T08:35:01;22.90;99.90
10083;DHT22;5080;48.528;8.078;2023-05-31T08:37:30;22.90;99.90
10083;DHT22;5080;48.528;8.078;2023-05-31T08:39:56;22.90;99.90
10083;DHT22;5080;48.528;8.078;2023-05-31T08:42:25;23.00;99.90
10083;DHT22;5080;48.528;8.078;2023-05-31T08:44:53;23.20;99.90
10083;DHT22;5080;48.528;8.078;2023-05-31T08:47:23;23.30;99.90
10083;DHT22;5080;48.528;8.078;2023-05-31T08:49:54;23.30;99.90
10083;DHT22;5080;48.528;8.078;2023-05-31T08:52:22;23.40;99.90
10083;DHT22;5080;48.528;8.078;2023-05-31T08:54:50;23.70;99.90
10083;DHT22;5080;48.528;8.078;2023-05-31T08:57:19;23.80;99.90
10083;DHT22;5080;48.528;8.078;2023-05-31T08:59:47;23.80;99.90
10083;DHT22;5080;48.528;8.078;2023-05-31T09:02:16;23.90;99.90
10083;DHT22;5080;48.528;8.078;2023-05-31T09:04:43;24.00;99.90
10083;DHT22;5080;48.528;8.078;2023-05-31T09:07:10;24.00;99.90
10083;DHT22;5080;48.528;8.078;2023-05-31T09:09:40;23.90;99.90
10083;DHT22;5080;48.528;8.078;2023-05-31T09:12:09;24.00;99.90
10083;DHT22;5080;48.528;8.078;2023-05-31T09:14:36;24.20;99.90
10083;DHT22;5080;48.528;8.078;2023-05-31T09:17:03;24.50;99.90
10083;DHT22;5080;48.528;8.078;2023-05-31T09:19:30;24.50;99.90
10083;DHT22;5080;48.528;8.078;2023-05-31T09:21:57;24.40;99.90
10083;DHT22;5080;48.528;8.078;2023-05-31T09:24:24;24.30;99.90
10083;DHT22;5080;48.528;8.078;2023-05-31T09:26:52;24.40;99.90
10083;DHT22;5080;48.528;8.078;2023-05-31T09:29:22;24.60;99.90
10083;DHT22;5080;48.528;8.078;2023-05-31T09:31:49;24.60;99.90
10083;DHT22;5080;48.528;8.078;2023-05-31T09:34:33;24.60;99.90
10083;DHT22;5080;48.528;8.078;2023-05-31T09:37:00;24.80;99.90
10083;DHT22;5080;48.528;8.078;2023-05-31T09:39:28;24.70;99.90
10083;DHT22;5080;48.528;8.078;2023-05-31T09:41:57;24.80;99.90
10083;DHT22;5080;48.528;8.078;2023-05-31T09:44:27;24.80;99.90
10083;DHT22;5080;48.528;8.078;2023-05-31T09:46:54;24.80;99.90
10083;DHT22;5080;48.528;8.078;2023-05-31T09:49:22;24.80;99.90
10083;DHT22;5080;48.528;8.078;2023-05-31T09:51:50;24.90;99.90
10083;DHT22;5080;48.528;8.078;2023-05-31T09:54:18;25.00;99.90
10083;DHT22;5080;48.528;8.078;2023-05-31T09:56:48;24.90;99.90
10083;DHT22;5080;48.528;8.078;2023-05-31T09:59:15;24.80;99.90
10083;DHT22;5080;48.528;8.078;2023-05-31T10:01:44;24.80;99.90
10083;DHT22;5080;48.528;8.078;2023-05-31T10:04:12;24.80;99.90
10083;DHT22;5080;48.528;8.078;2023-05-31T10:06:39;25.20;99.90
10083;DHT22;5080;48.528;8.078;2023-05-31T10:09:07;25.30;99.90
10083;DHT22;5080;48.528;8.078;2023-05-31T10:11:35;25.50;99.90
10083;DHT22;5080;48.528;8.078;2023-05-31T10:14:06;25.70;99.10
10083;DHT22;5080;48.528;8.078;2023-05-31T10:16:38;25.80;98.00
10083;DHT22;5080;48.528;8.078;2023-05-31T10:19:11;25.90;97.30
10083;DHT22;5080;48.528;8.078;2023-05-31T10:21:42;26.00;96.10
10083;DHT22;5080;48.528;8.078;2023-05-31T10:24:13;26.10;95.70
10083;DHT22;5080;48.528;8.078;2023-05-31T10:26:46;26.20;95.70
10083;DHT22;5080;48.528;8.078;2023-05-31T10:29:17;26.40;94.50
10083;DHT22;5080;48.528;8.078;2023-05-31T10:31:49;26.40;94.40
10083;DHT22;5080;48.528;8.078;2023-05-31T10:34:21;26.40;94.50
10083;DHT22;5080;48.528;8.078;2023-05-31T10:36:49;26.50;93.70
10083;DHT22;5080;48.528;8.078;2023-05-31T10:39:26;26.40;93.10
10083;DHT22;5080;48.528;8.078;2023-05-31T10:42:03;26.60;94.00
10083;DHT22;5080;48.528;8.078;2023-05-31T10:44:39;26.80;94.60
10083;DHT22;5080;48.528;8.078;2023-05-31T10:47:07;26.80;93.80
10083;DHT22;5080;48.528;8.078;2023-05-31T10:49:40;26.90;93.70
10083;DHT22;5080;48.528;8.078;2023-05-31T10:52:09;26.90;93.30
10083;DHT22;5080;48.528;8.078;2023-05-31T10:54:38;26.80;92.90
10083;DHT22;5080;48.528;8.078;2023-05-31T10:57:06;26.80;92.80
10083;DHT22;5080;48.528;8.078;2023-05-31T10:59:40;27.00;94.10
10083;DHT22;5080;48.528;8.078;2023-05-31T11:02:09;27.00;93.60
10083;DHT22;5080;48.528;8.078;2023-05-31T11:04:38;27.30;94.50
10083;DHT22;5080;48.528;8.078;2023-05-31T11:07:13;27.40;94.00
10083;DHT22;5080;48.528;8.078;2023-05-31T11:09:40;27.50;94.80
10083;DHT22;5080;48.528;8.078;2023-05-31T11:12:11;27.60;92.90
10083;DHT22;5080;48.528;8.078;2023-05-31T11:14:39;27.50;92.30
10083;DHT22;5080;48.528;8.078;2023-05-31T11:17:15;27.50;91.70
10083;DHT22;5080;48.528;8.078;2023-05-31T11:19:51;27.50;91.30
10083;DHT22;5080;48.528;8.078;2023-05-31T11:22:22;27.50;91.20
10083;DHT22;5080;48.528;8.078;2023-05-31T11:24:51;27.50;91.30
10083;DHT22;5080;48.528;8.078;2023-05-31T11:27:20;27.50;91.00
10083;DHT22;5080;48.528;8.078;2023-05-31T11:29:56;27.40;90.80
10083;DHT22;5080;48.528;8.078;2023-05-31T11:32:54;27.30;90.40
10083;DHT22;5080;48.528;8.078;2023-05-31T11:35:23;27.50;90.60
10083;DHT22;5080;48.528;8.078;2023-05-31T11:38:08;27.70;91.30
10083;DHT22;5080;48.528;8.078;2023-05-31T11:40:35;27.70;91.60
10083;DHT22;5080;48.528;8.078;2023-05-31T11:43:07;27.80;91.10
10083;DHT22;5080;48.528;8.078;2023-05-31T11:45:40;27.70;88.20
10083;DHT22;5080;48.528;8.078;2023-05-31T11:48:29;27.80;90.50
10083;DHT22;5080;48.528;8.078;2023-05-31T11:50:59;27.90;91.00
10083;DHT22;5080;48.528;8.078;2023-05-31T11:53:26;27.90;90.10
10083;DHT22;5080;48.528;8.078;2023-05-31T11:55:54;27.80;90.30
10083;DHT22;5080;48.528;8.078;2023-05-31T11:58:21;27.70;89.10
10083;DHT22;5080;48.528;8.078;2023-05-31T12:00:49;27.80;87.90
10083;DHT22;5080;48.528;8.078;2023-05-31T12:03:17;27.80;85.20
10083;DHT22;5080;48.528;8.078;2023-05-31T12:05:49;27.80;84.70
10083;DHT22;5080;48.528;8.078;2023-05-31T12:08:18;27.80;85.40
10083;DHT22;5080;48.528;8.078;2023-05-31T12:10:45;27.90;86.30
10083;DHT22;5080;48.528;8.078;2023-05-31T12:13:15;28.00;86.40
10083;DHT22;5080;48.528;8.078;2023-05-31T12:15:42;28.10;86.70
10083;DHT22;5080;48.528;8.078;2023-05-31T12:18:16;28.20;86.70
10083;DHT22;5080;48.528;8.078;2023-05-31T12:20:43;28.30;86.10
10083;DHT22;5080;48.528;8.078;2023-05-31T12:23:11;28.30;87.60
10083;DHT22;5080;48.528;8.078;2023-05-31T12:25:45;28.20;86.90
10083;DHT22;5080;48.528;8.078;2023-05-31T12:28:12;28.20;85.10
10083;DHT22;5080;48.528;8.078;2023-05-31T12:30:43;28.20;86.30
10083;DHT22;5080;48.528;8.078;2023-05-31T12:33:10;28.30;87.10
10083;DHT22;5080;48.528;8.078;2023-05-31T12:35:42;28.30;87.20
10083;DHT22;5080;48.528;8.078;2023-05-31T12:38:09;28.30;85.90
10083;DHT22;5080;48.528;8.078;2023-05-31T12:40:37;28.40;87.20
10083;DHT22;5080;48.528;8.078;2023-05-31T12:43:06;28.40;87.00
10083;DHT22;5080;48.528;8.078;2023-05-31T12:45:38;28.50;87.30
10083;DHT22;5080;48.528;8.078;2023-05-31T12:48:07;28.50;85.60
10083;DHT22;5080;48.528;8.078;2023-05-31T12:50:33;28.50;83.50
10083;DHT22;5080;48.528;8.078;2023-05-31T12:53:00;28.50;84.80
10083;DHT22;5080;48.528;8.078;2023-05-31T12:55:27;28.50;83.20
10083;DHT22;5080;48.528;8.078;2023-05-31T12:57:54;28.40;82.70
10083;DHT22;5080;48.528;8.078;2023-05-31T13:00:22;28.50;83.90
10083;DHT22;5080;48.528;8.078;2023-05-31T13:02:50;28.50;84.10
10083;DHT22;5080;48.528;8.078;2023-05-31T13:05:18;28.50;84.80
10083;DHT22;5080;48.528;8.078;2023-05-31T13:07:45;28.50;84.40
10083;DHT22;5080;48.528;8.078;2023-05-31T13:10:12;28.30;82.20
10083;DHT22;5080;48.528;8.078;2023-05-31T13:12:40;28.30;81.80
10083;DHT22;5080;48.528;8.078;2023-05-31T13:15:08;28.50;82.80
10083;DHT22;5080;48.528;8.078;2023-05-31T13:17:37;28.60;84.00
10083;DHT22;5080;48.528;8.078;2023-05-31T13:20:05;28.60;82.00
10083;DHT22;5080;48.528;8.078;2023-05-31T13:22:32;28.70;82.80
10083;DHT22;5080;48.528;8.078;2023-05-31T13:24:59;28.70;82.10
10083;DHT22;5080;48.528;8.078;2023-05-31T13:27:26;28.60;81.70
10083;DHT22;5080;48.528;8.078;2023-05-31T13:29:53;28.60;81.20
10083;DHT22;5080;48.528;8.078;2023-05-31T13:32:21;28.60;80.70
10083;DHT22;5080;48.528;8.078;2023-05-31T13:34:49;28.60;80.70
10083;DHT22;5080;48.528;8.078;2023-05-31T13:37:16;28.70;81.70
10083;DHT22;5080;48.528;8.078;2023-05-31T13:39:46;28.70;81.10
10083;DHT22;5080;48.528;8.078;2023-05-31T13:42:14;28.60;80.30
10083;DHT22;5080;48.528;8.078;2023-05-31T13:44:41;28.70;82.20
10083;DHT22;5080;48.528;8.078;2023-05-31T13:47:08;28.70;80.80
10083;DHT22;5080;48.528;8.078;2023-05-31T13:49:35;28.60;80.30
10083;DHT22;5080;48.528;8.078;2023-05-31T13:52:05;28.60;80.60
10083;DHT22;5080;48.528;8.078;2023-05-31T13:54:34;28.60;79.50
10083;DHT22;5080;48.528;8.078;2023-05-31T13:57:01;28.70;80.40
10083;DHT22;5080;48.528;8.078;2023-05-31T13:59:29;28.70;80.40
10083;DHT22;5080;48.528;8.078;2023-05-31T14:01:56;28.80;81.90
10083;DHT22;5080;48.528;8.078;2023-05-31T14:04:23;28.80;80.40
10083;DHT22;5080;48.528;8.078;2023-05-31T14:06:50;28.80;79.60
10083;DHT22;5080;48.528;8.078;2023-05-31T14:09:19;28.70;80.60
10083;DHT22;5080;48.528;8.078;2023-05-31T14:11:47;28.80;81.70
10083;DHT22;5080;48.528;8.078;2023-05-31T14:14:14;28.80;80.70
10083;DHT22;5080;48.528;8.078;2023-05-31T14:16:40;28.90;81.30
10083;DHT22;5080;48.528;8.078;2023-05-31T14:19:08;29.00;80.60
10083;DHT22;5080;48.528;8.078;2023-05-31T14:21:35;29.00;80.10
10083;DHT22;5080;48.528;8.078;2023-05-31T14:24:02;29.00;81.20
10083;DHT22;5080;48.528;8.078;2023-05-31T14:26:30;28.90;79.80
10083;DHT22;5080;48.528;8.078;2023-05-31T14:28:57;28.80;79.90
10083;DHT22;5080;48.528;8.078;2023-05-31T14:31:24;28.70;77.70
10083;DHT22;5080;48.528;8.078;2023-05-31T14:33:51;28.60;76.90
10083;DHT22;5080;48.528;8.078;2023-05-31T14:36:18;28.40;75.90
10083;DHT22;5080;48.528;8.078;2023-05-31T14:38:44;28.40;76.60
10083;DHT22;5080;48.528;8.078;2023-05-31T14:41:11;28.50;77.20
10083;DHT22;5080;48.528;8.078;2023-05-31T14:43:40;28.50;77.60
10083;DHT22;5080;48.528;8.078;2023-05-31T14:46:06;28.60;79.20
10083;DHT22;5080;48.528;8.078;2023-05-31T14:48:33;28.70;78.90
10083;DHT22;5080;48.528;8.078;2023-05-31T14:51:00;28.70;78.60
10083;DHT22;5080;48.528;8.078;2023-05-31T14:53:27;28.80;78.90
10083;DHT22;5080;48.528;8.078;2023-05-31T14:55:54;28.70;78.30
10083;DHT22;5080;48.528;8.078;2023-05-31T14:58:21;28.70;78.10
10083;DHT22;5080;48.528;8.078;2023-05-31T15:00:50;28.60;76.80
10083;DHT22;5080;48.528;8.078;2023-05-31T15:03:17;28.70;76.90
10083;DHT22;5080;48.528;8.078;2023-05-31T15:05:44;28.70;77.40
10083;DHT22;5080;48.528;8.078;2023-05-31T15:08:11;28.80;77.50
10083;DHT22;5080;48.528;8.078;2023-05-31T15:10:38;28.80;77.00
10083;DHT22;5080;48.528;8.078;2023-05-31T15:13:05;28.90;77.60
10083;DHT22;5080;48.528;8.078;2023-05-31T15:15:31;28.80;76.20
10083;DHT22;5080;48.528;8.078;2023-05-31T15:18:00;28.70;75.30
10083;DHT22;5080;48.528;8.078;2023-05-31T15:20:27;28.50;72.80
10083;DHT22;5080;48.528;8.078;2023-05-31T15:22:53;28.50;73.80
10083;DHT22;5080;48.528;8.078;2023-05-31T15:25:20;28.60;75.00
10083;DHT22;5080;48.528;8.078;2023-05-31T15:27:47;28.60;75.50
10083;DHT22;5080;48.528;8.078;2023-05-31T15:30:14;28.50;74.50
10083;DHT22;5080;48.528;8.078;2023-05-31T15:32:41;28.40;74.40
10083;DHT22;5080;48.528;8.078;2023-05-31T15:35:09;28.30;74.10
10083;DHT22;5080;48.528;8.078;2023-05-31T15:37:36;28.30;73.90
10083;DHT22;5080;48.528;8.078;2023-05-31T15:40:04;28.40;73.90
10083;DHT22;5080;48.528;8.078;2023-05-31T15:42:31;28.40;74.30
10083;DHT22;5080;48.528;8.078;2023-05-31T15:44:58;28.40;73.60
10083;DHT22;5080;48.528;8.078;2023-05-31T15:47:25;28.40;74.80
10083;DHT22;5080;48.528;8.078;2023-05-31T15:49:51;28.50;74.30
10083;DHT22;5080;48.528;8.078;2023-05-31T15:52:21;28.60;74.20